Stations météo

réclame
Mon MeteoGroup
Aonach Mor, Grande-Bretagne (3041): Température de l'air & dewpoint: 11.09.2019 20:00:00 - 17.09.2019 20:00:00 (BST)Aonach Mor, Grande-Bretagne (3041): Vitesse du vent & gusts: 11.09.2019 20:00:00 - 17.09.2019 20:00:00 (BST)Aonach Mor, Grande-Bretagne (3041): Direction du vent: 11.09.2019 20:00:00 - 17.09.2019 20:00:00 (BST)
Date & Time tt [°C] td [°C] ff [km/h] ff [knt] fx [km/h] fx [knt] dd
17.09.2019 20:00:00 2,2 2,2 5 3 - - WSW
17.09.2019 19:00:00 2,6 2,3 5 3 - - WSW
17.09.2019 18:00:00 2,9 1,8 9 5 - - W
17.09.2019 17:00:00 2,9 1,2 9 5 - - W
17.09.2019 16:00:00 3,2 1,6 9 5 - - W
17.09.2019 15:00:00 3,0 1,5 11 6 - - WSW
17.09.2019 14:00:00 2,4 0,5 13 7 - - WNW
17.09.2019 13:00:00 2,1 1,0 13 7 - - WNW
17.09.2019 12:00:00 1,9 1,4 21 11 - - NW
17.09.2019 11:00:00 1,9 1,1 13 7 - - WNW
17.09.2019 10:00:00 1,2 0,4 21 11 - - NW
17.09.2019 09:00:00 0,6 0,4 15 8 - - NW
17.09.2019 08:00:00 0,0 -0,1 24 13 - - NW
17.09.2019 07:00:00 -0,1 -0,1 26 14 - - WNW
17.09.2019 06:00:00 0,0 0,0 24 13 - - NW
17.09.2019 05:00:00 0,8 0,8 18 10 - - WNW
17.09.2019 04:00:00 0,6 0,6 16 9 - - W
17.09.2019 03:00:00 1,2 1,2 18 10 - - W
17.09.2019 02:00:00 1,6 1,6 21 11 - - W
17.09.2019 01:00:00 1,3 1,3 26 14 - - WSW
17.09.2019 00:00:00 1,6 1,6 26 14 - - W
16.09.2019 23:00:00 2,7 2,7 31 17 55 30 WSW
16.09.2019 22:00:00 2,8 2,8 28 15 48 26 WSW
16.09.2019 21:00:00 2,5 2,5 26 14 48 26 WSW
16.09.2019 20:00:00 2,6 2,6 37 20 63 34 WSW
16.09.2019 19:00:00 2,8 2,8 39 21 55 30 WSW
16.09.2019 18:00:00 3,0 3,0 35 19 57 31 WSW
16.09.2019 17:00:00 3,0 3,0 41 22 54 29 WSW
16.09.2019 16:00:00 3,2 3,2 39 21 54 29 WSW
16.09.2019 15:00:00 3,1 3,1 31 17 61 33 WSW
16.09.2019 14:00:00 3,0 3,0 37 20 63 34 WSW
16.09.2019 13:00:00 2,3 2,3 34 18 63 34 WSW
16.09.2019 12:00:00 3,1 3,1 42 23 57 31 WSW
16.09.2019 11:00:00 2,4 2,4 29 16 55 30 WSW
16.09.2019 10:00:00 2,1 2,1 39 21 52 28 WSW
16.09.2019 09:00:00 1,7 1,7 31 17 50 27 WSW
16.09.2019 08:00:00 1,5 1,5 24 13 48 26 WSW
16.09.2019 07:00:00 2,0 2,0 34 18 - - WSW
16.09.2019 06:00:00 1,4 1,4 29 16 46 25 WSW
16.09.2019 05:00:00 1,9 1,9 29 16 52 28 WSW
16.09.2019 04:00:00 2,4 2,4 35 19 52 28 WSW
16.09.2019 03:00:00 2,0 2,0 37 20 48 26 SW
16.09.2019 02:00:00 1,9 1,9 37 20 46 25 WSW
16.09.2019 01:00:00 1,7 1,7 31 17 - - WSW
16.09.2019 00:00:00 1,4 1,4 31 17 46 25 WSW
15.09.2019 23:00:00 2,0 2,0 28 15 - - WSW
15.09.2019 22:00:00 1,5 1,5 29 16 - - WSW
15.09.2019 21:00:00 1,7 1,7 24 13 - - SW
15.09.2019 20:00:00 1,3 1,3 15 8 - - WSW
15.09.2019 19:00:00 2,1 2,1 16 9 - - W
15.09.2019 18:00:00 2,3 2,3 18 10 - - W
15.09.2019 17:00:00 2,6 2,6 26 14 50 27 WSW
15.09.2019 16:00:00 4,3 3,8 35 19 50 27 SW
15.09.2019 15:00:00 2,7 2,7 28 15 52 28 WSW
15.09.2019 14:00:00 2,6 2,6 24 13 57 31 WSW
15.09.2019 13:00:00 2,5 2,5 31 17 57 31 WSW
15.09.2019 12:00:00 2,5 2,5 31 17 54 29 WSW
15.09.2019 11:00:00 1,7 1,7 35 19 63 34 WSW
15.09.2019 10:00:00 1,7 1,7 29 16 55 30 WSW
15.09.2019 09:00:00 1,9 1,9 39 21 67 36 WSW
15.09.2019 08:00:00 1,4 1,4 48 26 76 41 WSW
15.09.2019 07:00:00 1,2 1,2 48 26 72 39 WSW
15.09.2019 06:00:00 1,6 1,6 34 18 59 32 WSW
15.09.2019 05:00:00 1,8 1,8 35 19 78 42 WSW
15.09.2019 04:00:00 2,2 2,2 61 33 91 49 SW
15.09.2019 03:00:00 1,9 1,9 63 34 89 48 SW
15.09.2019 02:00:00 2,7 2,7 70 38 89 48 SW
15.09.2019 01:00:00 3,1 3,1 74 40 96 52 WSW
15.09.2019 00:00:00 3,6 3,6 70 38 93 50 WSW
14.09.2019 23:00:00 3,6 3,6 70 38 87 47 WSW
14.09.2019 22:00:00 3,4 3,4 63 34 87 47 SW
14.09.2019 21:00:00 5,9 5,9 44 24 80 43 WSW
14.09.2019 20:00:00 7,3 7,1 61 33 126 68 SW
14.09.2019 19:00:00 8,6 8,5 72 39 115 62 SW
14.09.2019 18:00:00 8,6 8,5 70 38 115 62 SW
14.09.2019 17:00:00 8,3 8,1 68 37 131 71 SSW
14.09.2019 16:00:00 7,7 7,5 85 46 146 79 SW
14.09.2019 15:00:00 7,3 7,1 93 50 161 87 SSW
14.09.2019 14:00:00 7,2 7,0 109 59 165 89 SSW
14.09.2019 13:00:00 7,8 7,6 111 60 165 89 SSW
14.09.2019 12:00:00 7,6 7,4 98 53 154 83 SSW
14.09.2019 11:00:00 7,5 7,3 98 53 150 81 SSW
14.09.2019 10:00:00 5,5 5,3 93 50 126 68 SSW
14.09.2019 09:00:00 4,5 4,5 93 50 131 71 SSW
14.09.2019 08:00:00 4,1 4,1 109 59 141 76 SSW
14.09.2019 07:00:00 4,1 4,1 94 51 139 75 SSW
14.09.2019 06:00:00 5,2 0,0 85 46 113 61 SSW
14.09.2019 05:00:00 4,5 3,5 72 39 115 62 SSW
14.09.2019 04:00:00 3,9 3,7 70 38 98 53 SSW
14.09.2019 03:00:00 4,0 4,0 57 31 93 50 SSW
14.09.2019 02:00:00 3,7 2,9 59 32 80 43 SSW
14.09.2019 01:00:00 3,6 3,4 50 27 72 39 SSW
14.09.2019 00:00:00 3,7 3,7 37 20 65 35 SSW
13.09.2019 23:00:00 3,6 3,6 34 18 63 34 SSW
13.09.2019 22:00:00 3,7 3,5 39 21 70 38 SW
13.09.2019 21:00:00 3,9 3,9 31 17 63 34 SW
13.09.2019 20:00:00 3,8 3,6 46 25 83 45 SW
13.09.2019 19:00:00 3,7 3,5 50 27 76 41 SW
13.09.2019 18:00:00 3,8 3,8 39 21 63 34 WSW
13.09.2019 17:00:00 3,9 3,9 41 22 57 31 SW
13.09.2019 16:00:00 4,1 3,2 44 24 74 40 SW
13.09.2019 15:00:00 3,9 3,8 41 22 67 36 WSW
13.09.2019 14:00:00 5,0 3,8 41 22 65 35 SW
13.09.2019 13:00:00 3,7 3,5 44 24 67 36 SW
13.09.2019 12:00:00 3,7 3,4 44 24 59 32 WSW
13.09.2019 11:00:00 2,9 2,9 41 22 68 37 SW
13.09.2019 10:00:00 2,5 2,5 46 25 61 33 SW
13.09.2019 09:00:00 2,9 2,9 46 25 68 37 WSW
13.09.2019 08:00:00 2,5 2,5 29 16 61 33 WSW
13.09.2019 07:00:00 2,4 2,4 29 16 59 32 WSW
13.09.2019 06:00:00 1,9 1,9 41 22 54 29 WSW
13.09.2019 05:00:00 2,4 2,4 37 20 54 29 WSW
13.09.2019 04:00:00 2,4 2,4 39 21 59 32 WSW
13.09.2019 03:00:00 2,9 2,9 41 22 59 32 WSW
13.09.2019 02:00:00 2,5 2,5 42 23 65 35 WSW
13.09.2019 01:00:00 3,0 3,0 52 28 80 43 WSW
13.09.2019 00:00:00 2,3 2,3 48 26 72 39 SW
12.09.2019 23:00:00 3,0 3,0 57 31 74 40 WSW
12.09.2019 22:00:00 2,6 2,6 42 23 55 30 WSW
12.09.2019 21:00:00 2,9 2,9 39 21 55 30 WSW
12.09.2019 20:00:00 3,3 3,3 34 18 48 26 WSW
12.09.2019 19:00:00 3,8 3,8 28 15 - - WSW
12.09.2019 18:00:00 4,6 4,6 22 12 - - W
12.09.2019 17:00:00 4,4 4,4 21 11 - - W
12.09.2019 16:00:00 4,6 4,6 22 12 46 25 WSW
12.09.2019 15:00:00 4,4 4,4 28 15 48 26 WSW
12.09.2019 14:00:00 4,1 4,1 29 16 52 28 WSW
12.09.2019 13:00:00 4,9 4,9 37 20 61 33 WSW
12.09.2019 12:00:00 4,8 4,8 26 14 102 55 SW
12.09.2019 11:00:00 4,8 4,8 42 23 70 38 SW
12.09.2019 10:00:00 4,7 4,7 41 22 87 47 SW
12.09.2019 09:00:00 4,6 4,6 50 27 83 45 SW
12.09.2019 08:00:00 4,5 4,5 48 26 81 44 SW
12.09.2019 07:00:00 4,3 4,3 46 25 85 46 SW
12.09.2019 06:00:00 3,9 3,9 59 32 98 53 SW
12.09.2019 05:00:00 4,1 4,1 52 28 85 46 SW
12.09.2019 04:00:00 3,8 3,8 55 30 89 48 SW
12.09.2019 03:00:00 4,6 4,6 57 31 83 45 SW
12.09.2019 02:00:00 4,7 4,7 44 24 85 46 SW
12.09.2019 01:00:00 4,9 4,9 37 20 87 47 SW
12.09.2019 00:00:00 4,5 4,5 54 29 83 45 SW
11.09.2019 23:00:00 4,5 4,5 44 24 85 46 SW
11.09.2019 22:00:00 4,9 4,9 39 21 93 50 SW
11.09.2019 21:00:00 5,0 5,0 48 26 81 44 WSW
11.09.2019 20:00:00 4,8 4,8 52 28 100 54 SW

tt = Température de l'air
td = dewpoint
ff = Vitesse du vent
fx = gusts
dd = Direction du vent

stations d'obs. à proximité